Time;durP1;ratioP1;P1;durP2;ratioP2;P2;SDS_P1;SDS_P2;PMS_P1;PMS_P2;Temp;Humidity;BMP_temperature;BMP_pressure;BME280_temperature;BME280_humidity;BME280_pressure;Samples;Min_cycle;Max_cycle;Signal;HPM_P1;HPM_P2
2022/07/15 00:00:31;;;;;;;9.00;2.03;;;23.70;71.60;;;;;;4857024;29;20022;-82
2022/07/15 00:02:58;;;;;;;9.48;1.98;;;23.60;72.10;;;;;;4859206;29;20717;-82
2022/07/15 00:05:24;;;;;;;5.38;1.77;;;23.50;72.80;;;;;;4856498;29;20030;-82
2022/07/15 00:07:49;;;;;;;8.00;2.13;;;23.50;73.70;;;;;;4844891;29;20104;-82
2022/07/15 00:10:15;;;;;;;9.00;1.70;;;23.40;74.10;;;;;;4853092;29;20503;-82
2022/07/15 00:12:51;;;;;;;7.65;1.95;;;23.40;74.40;;;;;;4850805;29;20171;-82
2022/07/15 00:15:19;;;;;;;7.05;2.20;;;23.30;75.40;;;;;;4846349;29;20041;-82
2022/07/15 00:17:45;;;;;;;9.85;2.05;;;23.30;75.60;;;;;;4853900;29;20029;-82
2022/07/15 00:20:12;;;;;;;8.27;1.83;;;23.30;75.70;;;;;;4857093;29;20403;-82
2022/07/15 00:22:39;;;;;;;4.50;1.80;;;23.40;75.60;;;;;;4855301;29;20659;-82
2022/07/15 00:25:05;;;;;;;3.45;1.80;;;23.40;76.60;;;;;;4858327;29;20048;-81
2022/07/15 00:27:31;;;;;;;8.77;2.13;;;23.30;76.70;;;;;;4846430;29;20022;-82
2022/07/15 00:29:56;;;;;;;6.45;1.90;;;23.40;77.20;;;;;;4853538;29;20045;-82
2022/07/15 00:32:22;;;;;;;3.63;1.80;;;23.40;77.10;;;;;;4857061;29;20511;-82
2022/07/15 00:34:48;;;;;;;9.68;2.20;;;23.30;77.60;;;;;;4856041;29;20139;-82
2022/07/15 00:37:14;;;;;;;9.85;2.13;;;23.20;77.70;;;;;;4858399;29;20570;-81
2022/07/15 00:39:40;;;;;;;7.50;2.10;;;23.20;78.00;;;;;;4858813;29;20026;-82
2022/07/15 00:42:05;;;;;;;11.40;2.28;;;23.20;78.30;;;;;;4853455;29;20034;-81
2022/07/15 00:44:31;;;;;;;7.13;2.08;;;23.20;78.70;;;;;;4853805;29;20030;-82
2022/07/15 00:46:59;;;;;;;9.25;2.40;;;23.20;79.10;;;;;;4849447;29;20125;-82
2022/07/15 00:49:25;;;;;;;14.02;2.17;;;23.10;79.80;;;;;;4854888;29;20045;-81
2022/07/15 00:51:54;;;;;;;6.25;2.40;;;23.10;79.80;;;;;;4852054;29;20026;-82
2022/07/15 00:54:25;;;;;;;5.57;2.10;;;23.00;80.00;;;;;;4856304;29;20034;-82
2022/07/15 00:56:53;;;;;;;5.25;2.30;;;22.90;80.80;;;;;;4854255;29;20538;-81
2022/07/15 00:59:25;;;;;;;5.75;2.17;;;22.90;81.10;;;;;;4857503;29;20089;-82
2022/07/15 01:01:52;;;;;;;8.80;2.25;;;22.80;81.10;;;;;;4856919;29;20044;-82
2022/07/15 01:04:20;;;;;;;6.57;2.10;;;22.80;81.20;;;;;;4853145;29;20044;-81
2022/07/15 01:06:46;;;;;;;9.60;2.15;;;22.80;81.90;;;;;;4845202;29;20053;-82
2022/07/15 01:09:12;;;;;;;6.10;2.03;;;22.70;82.00;;;;;;4848929;29;20431;-82
2022/07/15 01:11:38;;;;;;;8.45;1.92;;;22.60;82.40;;;;;;4854095;29;20104;-81
2022/07/15 01:14:04;;;;;;;9.75;2.20;;;22.60;82.90;;;;;;4850156;29;20033;-82
2022/07/15 01:16:30;;;;;;;4.97;1.83;;;22.60;83.10;;;;;;4855350;29;20022;-82
2022/07/15 01:18:56;;;;;;;4.65;1.80;;;22.60;83.20;;;;;;4852726;29;20187;-81
2022/07/15 01:21:22;;;;;;;5.85;1.77;;;22.60;83.10;;;;;;4840871;29;20018;-82
2022/07/15 01:23:49;;;;;;;5.65;1.95;;;22.60;83.10;;;;;;4855962;29;20120;-82
2022/07/15 01:26:15;;;;;;;8.80;2.00;;;22.60;83.60;;;;;;4854366;29;20028;-82
2022/07/15 01:28:42;;;;;;;6.78;2.00;;;22.40;83.70;;;;;;4846493;29;20399;-82
2022/07/15 01:31:08;;;;;;;7.47;1.98;;;22.40;83.90;;;;;;4854546;29;20258;-82
2022/07/15 01:33:35;;;;;;;5.57;2.00;;;22.40;84.00;;;;;;4855800;29;20090;-82
2022/07/15 01:36:01;;;;;;;5.68;2.00;;;22.40;84.10;;;;;;4856882;29;20025;-82
2022/07/15 01:38:28;;;;;;;7.15;2.40;;;22.40;84.20;;;;;;4856579;29;20068;-82
2022/07/15 01:40:54;;;;;;;6.72;2.30;;;22.40;84.40;;;;;;4858228;29;20025;-82
2022/07/15 01:43:20;;;;;;;6.22;2.33;;;22.30;84.50;;;;;;4848704;29;20625;-82
2022/07/15 01:45:46;;;;;;;7.95;2.20;;;22.30;84.60;;;;;;4851366;29;20030;-82
2022/07/15 01:50:59;;;;;;;6.28;2.33;;;22.20;85.10;;;;;;4846642;29;20089;-82
2022/07/15 01:53:27;;;;;;;6.85;2.17;;;22.30;85.00;;;;;;4852079;29;20065;-82
2022/07/15 01:55:53;;;;;;;5.85;2.03;;;22.20;84.90;;;;;;4855462;29;20372;-82
2022/07/15 01:58:19;;;;;;;8.85;2.33;;;22.20;85.20;;;;;;4854538;29;20082;-82
2022/07/15 02:00:46;;;;;;;7.45;2.33;;;22.20;85.00;;;;;;4856589;29;20033;-82
2022/07/15 02:03:11;;;;;;;7.03;2.15;;;22.10;85.00;;;;;;4857132;29;20124;-82
2022/07/15 02:05:37;;;;;;;7.70;2.17;;;22.00;85.60;;;;;;4852628;29;20619;-81
2022/07/15 02:08:03;;;;;;;11.57;2.47;;;22.00;86.00;;;;;;4844585;29;20210;-82
2022/07/15 02:10:39;;;;;;;5.88;2.47;;;21.90;85.90;;;;;;4849480;29;20427;-82
2022/07/15 02:13:12;;;;;;;6.43;2.30;;;21.90;86.20;;;;;;4853269;29;20044;-81
2022/07/15 02:15:39;;;;;;;8.02;2.03;;;21.80;86.60;;;;;;4846680;29;20029;-81
2022/07/15 02:18:06;;;;;;;5.80;2.17;;;21.80;86.40;;;;;;4845821;29;20487;-81
2022/07/15 02:20:32;;;;;;;9.98;2.80;;;21.80;86.70;;;;;;4843051;29;20026;-82
2022/07/15 02:22:58;;;;;;;10.30;2.15;;;21.80;86.50;;;;;;4855574;29;20093;-82
2022/07/15 02:25:34;;;;;;;9.73;2.40;;;21.80;86.40;;;;;;4855976;29;20112;-82
2022/07/15 02:28:03;;;;;;;10.63;2.58;;;21.70;86.70;;;;;;4837885;29;20029;-82
2022/07/15 02:30:34;;;;;;;4.45;2.08;;;21.70;86.90;;;;;;4854907;29;20030;-82
2022/07/15 02:33:00;;;;;;;6.15;2.38;;;21.70;87.00;;;;;;4853263;29;20037;-81
2022/07/15 02:35:26;;;;;;;10.20;3.15;;;21.60;86.80;;;;;;4856069;29;20022;-82
2022/07/15 02:37:52;;;;;;;6.95;2.72;;;21.60;87.30;;;;;;4855948;29;20061;-82
2022/07/15 02:40:18;;;;;;;6.13;3.00;;;21.50;87.70;;;;;;4857510;29;20068;-81
2022/07/15 02:42:51;;;;;;;4.00;2.20;;;21.50;88.00;;;;;;4845576;29;20021;-82
2022/07/15 02:45:22;;;;;;;7.95;2.85;;;21.50;87.80;;;;;;4834638;29;20395;-82
2022/07/15 02:47:48;;;;;;;5.50;2.25;;;21.50;87.90;;;;;;4852456;29;20097;-82
2022/07/15 02:50:15;;;;;;;8.27;2.70;;;21.50;88.20;;;;;;4849410;29;20045;-82
2022/07/15 02:52:41;;;;;;;5.78;2.67;;;21.50;88.00;;;;;;4853993;29;20027;-82
2022/07/15 02:55:09;;;;;;;7.07;2.70;;;21.40;88.20;;;;;;4852190;29;20044;-82
2022/07/15 02:57:34;;;;;;;8.02;2.42;;;21.30;88.60;;;;;;4869509;29;20026;-82
2022/07/15 03:00:00;;;;;;;5.72;2.70;;;21.40;88.90;;;;;;4854416;29;20044;-82
2022/07/15 03:02:27;;;;;;;8.40;3.00;;;21.30;88.90;;;;;;4856878;29;20030;-82
2022/07/15 03:04:52;;;;;;;11.73;3.38;;;21.40;89.00;;;;;;4856948;29;20040;-82
2022/07/15 03:07:18;;;;;;;6.88;2.78;;;21.40;89.00;;;;;;4860339;29;20046;-82
2022/07/15 03:09:44;;;;;;;6.78;2.90;;;21.40;89.20;;;;;;4851274;29;20033;-81
2022/07/15 03:12:10;;;;;;;9.45;2.90;;;21.40;89.00;;;;;;4849358;29;20097;-81
2022/07/15 03:14:35;;;;;;;5.00;2.75;;;21.40;89.20;;;;;;4852436;29;20066;-82
2022/07/15 03:17:01;;;;;;;6.15;2.80;;;21.40;89.60;;;;;;4852689;29;20450;-82
2022/07/15 03:19:27;;;;;;;10.00;2.97;;;21.30;89.70;;;;;;4852574;29;20033;-82
2022/07/15 03:21:52;;;;;;;9.57;3.13;;;21.30;90.10;;;;;;4854843;29;20037;-82
2022/07/15 03:24:18;;;;;;;8.93;2.80;;;21.20;90.10;;;;;;4854188;29;20364;-82
2022/07/15 03:26:44;;;;;;;9.27;3.30;;;21.20;90.20;;;;;;4849745;29;20030;-81
2022/07/15 03:29:09;;;;;;;4.32;2.88;;;21.30;90.30;;;;;;4847945;29;20041;-82
2022/07/15 03:31:36;;;;;;;5.22;3.10;;;21.30;90.20;;;;;;4855342;29;20022;-82
2022/07/15 03:34:02;;;;;;;7.85;3.03;;;21.20;90.20;;;;;;4858997;29;20030;-82
2022/07/15 03:36:27;;;;;;;13.68;3.30;;;21.10;90.60;;;;;;4858532;29;20049;-82
2022/07/15 03:38:53;;;;;;;8.43;3.28;;;21.00;91.00;;;;;;4860248;29;20064;-82
2022/07/15 03:41:19;;;;;;;8.07;3.53;;;20.90;91.30;;;;;;4846727;29;20263;-82
2022/07/15 03:43:45;;;;;;;13.00;3.70;;;20.90;91.20;;;;;;4850542;29;20030;-81
2022/07/15 03:46:11;;;;;;;4.53;2.67;;;20.90;91.30;;;;;;4855594;29;20026;-81
2022/07/15 03:48:37;;;;;;;10.30;3.70;;;20.90;91.10;;;;;;4851674;29;20274;-82
2022/07/15 03:51:03;;;;;;;8.45;3.67;;;20.90;91.20;;;;;;4856832;29;20592;-82
2022/07/15 03:53:29;;;;;;;7.13;3.65;;;20.90;91.10;;;;;;4854413;29;20061;-81
2022/07/15 03:55:54;;;;;;;7.53;3.72;;;20.90;91.20;;;;;;4857891;29;20533;-81
2022/07/15 03:58:20;;;;;;;6.15;2.95;;;20.80;91.60;;;;;;4857561;29;20033;-82
2022/07/15 04:00:46;;;;;;;9.93;3.63;;;20.70;91.70;;;;;;4859203;29;20036;-81
2022/07/15 04:03:11;;;;;;;9.48;3.05;;;20.80;91.80;;;;;;4859311;29;20097;-81
2022/07/15 04:05:38;;;;;;;5.88;3.33;;;20.70;92.10;;;;;;4854982;29;20492;-81
2022/07/15 04:08:04;;;;;;;7.78;3.58;;;20.60;92.40;;;;;;4867773;29;20107;-82
2022/07/15 04:10:31;;;;;;;5.78;2.85;;;20.60;92.50;;;;;;4843997;29;20503;-82
2022/07/15 04:12:57;;;;;;;13.25;3.78;;;20.60;92.50;;;;;;4854847;29;20491;-82
2022/07/15 04:15:23;;;;;;;5.63;3.35;;;20.50;92.80;;;;;;4854479;29;20045;-81
2022/07/15 04:17:49;;;;;;;9.40;3.35;;;20.50;92.80;;;;;;4855309;29;20083;-81
2022/07/15 04:20:14;;;;;;;7.45;3.35;;;20.60;93.00;;;;;;4857508;29;20069;-81
2022/07/15 04:22:41;;;;;;;10.18;3.70;;;20.60;92.80;;;;;;4856021;29;20021;-82
2022/07/15 04:25:08;;;;;;;7.90;3.40;;;20.50;92.80;;;;;;4858629;29;20036;-81
2022/07/15 04:27:34;;;;;;;8.05;3.50;;;20.60;93.10;;;;;;4846172;29;20033;-82
2022/07/15 04:30:00;;;;;;;6.45;3.38;;;20.50;93.20;;;;;;4855110;29;20132;-82
2022/07/15 04:32:26;;;;;;;6.72;3.33;;;20.60;93.20;;;;;;4857583;29;20239;-82
2022/07/15 04:34:52;;;;;;;6.25;3.70;;;20.60;93.10;;;;;;4856877;29;20090;-82
2022/07/15 04:37:18;;;;;;;7.10;3.58;;;20.50;93.20;;;;;;4859046;29;20560;-82
2022/07/15 04:39:44;;;;;;;9.88;3.78;;;20.50;93.50;;;;;;4857067;29;20178;-82
2022/07/15 04:42:09;;;;;;;7.97;3.88;;;20.50;93.50;;;;;;4849060;29;20050;-82
2022/07/15 04:44:35;;;;;;;8.23;3.38;;;20.50;93.50;;;;;;4854073;29;20034;-82
2022/07/15 04:47:02;;;;;;;10.55;4.22;;;20.50;93.60;;;;;;4850399;29;20022;-82
2022/07/15 04:52:13;;;;;;;9.25;3.63;;;20.50;93.80;;;;;;4854165;29;20039;-82
2022/07/15 04:54:39;;;;;;;9.40;3.90;;;20.50;93.70;;;;;;4856683;29;20029;-82
2022/07/15 04:57:05;;;;;;;7.78;3.50;;;20.40;93.80;;;;;;4855372;29;20026;-82
2022/07/15 04:59:30;;;;;;;7.68;3.95;;;20.40;94.00;;;;;;4849650;29;20037;-82
2022/07/15 05:01:56;;;;;;;8.55;3.88;;;20.50;93.90;;;;;;4853927;29;20054;-82
2022/07/15 05:04:22;;;;;;;8.63;3.65;;;20.50;93.90;;;;;;4850998;29;20034;-81
2022/07/15 05:06:47;;;;;;;8.25;3.47;;;20.40;94.00;;;;;;4847620;29;20049;-82
2022/07/15 05:09:13;;;;;;;7.63;3.38;;;20.40;94.10;;;;;;4849956;29;20105;-81
2022/07/15 05:11:39;;;;;;;8.32;3.70;;;20.50;94.00;;;;;;4854666;29;20128;-82
2022/07/15 05:14:04;;;;;;;9.13;3.83;;;20.50;94.10;;;;;;4851242;29;20109;-82
2022/07/15 05:16:30;;;;;;;9.27;4.00;;;20.50;94.10;;;;;;4855698;29;20065;-82
2022/07/15 05:18:56;;;;;;;10.55;3.38;;;20.60;94.00;;;;;;4853602;29;20048;-82
2022/07/15 05:21:22;;;;;;;7.68;4.25;;;20.50;94.10;;;;;;4856825;29;20403;-82
2022/07/15 05:23:48;;;;;;;8.00;3.38;;;20.50;94.10;;;;;;4856376;29;20048;-82
2022/07/15 05:26:13;;;;;;;12.07;3.90;;;20.60;93.90;;;;;;4855168;29;20098;-82
2022/07/15 05:28:39;;;;;;;9.00;3.67;;;20.60;94.00;;;;;;4846202;29;20053;-82
2022/07/15 05:31:05;;;;;;;10.00;3.75;;;20.60;94.10;;;;;;4855116;29;20034;-82
2022/07/15 05:33:31;;;;;;;8.55;4.03;;;20.70;94.10;;;;;;4856445;29;20033;-82
2022/07/15 05:35:57;;;;;;;8.05;3.78;;;20.70;94.10;;;;;;4857445;29;20025;-81
2022/07/15 05:38:23;;;;;;;8.85;4.05;;;20.70;94.00;;;;;;4857559;29;20486;-82
2022/07/15 05:40:49;;;;;;;7.35;3.35;;;20.60;94.20;;;;;;4852417;29;20098;-82
2022/07/15 05:43:15;;;;;;;7.25;3.70;;;20.70;94.10;;;;;;4849623;29;20419;-82
2022/07/15 05:45:40;;;;;;;10.30;3.78;;;20.70;94.00;;;;;;4851694;29;20112;-81
2022/07/15 05:48:06;;;;;;;6.07;3.13;;;20.70;94.30;;;;;;4852393;29;20033;-82
2022/07/15 05:50:32;;;;;;;6.47;3.53;;;20.80;94.20;;;;;;4851919;29;20030;-82
2022/07/15 05:52:57;;;;;;;13.05;4.10;;;20.80;94.30;;;;;;4855295;29;20507;-82
2022/07/15 05:55:23;;;;;;;7.70;4.07;;;20.70;94.30;;;;;;4853427;29;20021;-82
2022/07/15 05:57:49;;;;;;;10.80;3.40;;;20.80;94.10;;;;;;4856595;29;20030;-82
2022/07/15 06:00:15;;;;;;;10.65;3.95;;;20.70;94.40;;;;;;4855972;29;20026;-82
2022/07/15 06:02:41;;;;;;;13.20;4.22;;;20.60;94.60;;;;;;4857648;29;20040;-82
2022/07/15 06:05:08;;;;;;;10.63;4.45;;;20.80;94.40;;;;;;4844208;29;20022;-83
2022/07/15 06:07:35;;;;;;;9.63;3.75;;;20.90;94.20;;;;;;4848116;29;20058;-84
2022/07/15 06:10:01;;;;;;;8.90;3.83;;;21.00;94.10;;;;;;4853478;29;20044;-83
2022/07/15 06:12:27;;;;;;;8.43;3.85;;;21.00;94.20;;;;;;4849197;29;20396;-83
2022/07/15 06:14:53;;;;;;;12.20;4.20;;;21.00;94.00;;;;;;4854365;29;20518;-83
2022/07/15 06:17:18;;;;;;;10.63;4.82;;;21.20;93.70;;;;;;4850835;29;20038;-83
2022/07/15 06:19:44;;;;;;;13.13;3.88;;;21.10;93.90;;;;;;4849023;29;20593;-83
2022/07/15 06:22:09;;;;;;;7.88;3.70;;;21.20;94.10;;;;;;4850799;29;20112;-83
2022/07/15 06:24:35;;;;;;;10.88;4.43;;;21.20;93.80;;;;;;4859307;29;20418;-83
2022/07/15 06:27:01;;;;;;;9.65;3.92;;;21.10;94.00;;;;;;4848267;29;20037;-83
2022/07/15 06:29:26;;;;;;;10.57;3.38;;;21.30;93.80;;;;;;4838936;29;20038;-83
2022/07/15 06:31:52;;;;;;;8.50;3.60;;;21.30;93.90;;;;;;4839662;29;20375;-83
2022/07/15 06:34:18;;;;;;;9.63;4.00;;;21.30;93.80;;;;;;4839084;29;20044;-83
2022/07/15 06:36:46;;;;;;;9.68;3.72;;;21.40;93.50;;;;;;4839662;29;20601;-85
2022/07/15 06:39:12;;;;;;;9.38;3.55;;;21.50;93.70;;;;;;4850425;29;20033;-82
2022/07/15 06:41:37;;;;;;;8.82;3.55;;;21.60;93.70;;;;;;4852649;29;20022;-82
2022/07/15 06:44:05;;;;;;;13.50;4.10;;;21.70;93.30;;;;;;4843458;29;20101;-82
2022/07/15 06:46:30;;;;;;;7.50;4.00;;;21.80;93.00;;;;;;4849613;29;20133;-82
2022/07/15 06:48:56;;;;;;;11.05;3.72;;;21.90;92.80;;;;;;4850497;29;20468;-82
2022/07/15 06:51:22;;;;;;;9.95;4.47;;;22.00;92.80;;;;;;4852427;29;20089;-81
2022/07/15 06:53:48;;;;;;;8.80;3.20;;;21.90;92.80;;;;;;4851572;29;20022;-81
2022/07/15 06:56:14;;;;;;;6.80;3.47;;;22.00;93.00;;;;;;4854871;29;20033;-82
2022/07/15 06:58:39;;;;;;;8.52;2.97;;;22.00;92.70;;;;;;4843009;29;20072;-81
2022/07/15 07:01:05;;;;;;;11.82;3.45;;;22.10;92.60;;;;;;4855805;29;20036;-82
2022/07/15 07:03:31;;;;;;;7.93;3.15;;;22.20;92.30;;;;;;4855320;29;20025;-83
2022/07/15 07:05:57;;;;;;;8.63;3.47;;;22.20;92.50;;;;;;4853083;29;20395;-83
2022/07/15 07:08:23;;;;;;;6.72;3.20;;;22.30;92.00;;;;;;4851519;29;20061;-83
2022/07/15 07:10:49;;;;;;;12.27;3.33;;;22.40;92.20;;;;;;4867752;29;20065;-83
2022/07/15 07:13:14;;;;;;;9.60;3.10;;;22.50;92.10;;;;;;4858749;29;20029;-84
2022/07/15 07:15:40;;;;;;;8.52;3.08;;;22.70;91.60;;;;;;4846837;29;20459;-83
2022/07/15 07:18:07;;;;;;;10.90;3.13;;;22.80;91.60;;;;;;4860001;29;20487;-83
2022/07/15 07:20:33;;;;;;;8.45;2.83;;;22.80;91.20;;;;;;4857696;29;20026;-81
2022/07/15 07:22:58;;;;;;;7.20;2.97;;;22.90;90.90;;;;;;4861244;29;20061;-77
2022/07/15 07:25:24;;;;;;;8.00;3.60;;;22.90;91.00;;;;;;4856157;29;20085;-77
2022/07/15 07:27:50;;;;;;;8.55;2.90;;;23.00;90.70;;;;;;4848387;29;20117;-81
2022/07/15 07:30:16;;;;;;;7.65;2.78;;;23.10;90.40;;;;;;4860490;29;20052;-81
2022/07/15 07:32:41;;;;;;;16.25;3.28;;;23.00;90.60;;;;;;4861028;29;20040;-83
2022/07/15 07:35:08;;;;;;;7.28;3.15;;;23.10;90.20;;;;;;4861188;29;20387;-80
2022/07/15 07:37:38;;;;;;;5.63;2.50;;;23.20;90.20;;;;;;4851604;29;20026;-79
2022/07/15 07:40:05;;;;;;;11.73;2.83;;;23.40;90.00;;;;;;4847164;29;20283;-83
2022/07/15 07:42:31;;;;;;;5.40;2.85;;;23.40;88.60;;;;;;4850424;29;20025;-83
2022/07/15 07:44:59;;;;;;;8.65;3.22;;;23.40;88.20;;;;;;4860799;29;20061;-83
2022/07/15 07:47:25;;;;;;;7.93;3.03;;;23.50;87.90;;;;;;4848269;29;20029;-83
2022/07/15 07:49:50;;;;;;;10.55;3.50;;;23.60;88.00;;;;;;4862543;29;20044;-84
2022/07/15 07:52:16;;;;;;;5.90;3.00;;;23.70;87.10;;;;;;4847083;29;20105;-84
2022/07/15 07:54:43;;;;;;;11.70;3.17;;;23.70;86.70;;;;;;4855426;29;20495;-84
2022/07/15 07:57:10;;;;;;;6.57;2.90;;;23.80;87.00;;;;;;4855672;29;20029;-83
2022/07/15 07:59:36;;;;;;;4.38;2.75;;;23.80;86.70;;;;;;4856256;29;20031;-83
2022/07/15 08:02:03;;;;;;;11.70;3.65;;;23.90;86.60;;;;;;4872908;29;20077;-84
2022/07/15 08:04:29;;;;;;;12.77;3.33;;;23.90;85.90;;;;;;4857571;29;20028;-84
2022/07/15 08:06:56;;;;;;;6.60;3.28;;;24.00;86.10;;;;;;4860305;29;20132;-83
2022/07/15 08:09:21;;;;;;;9.75;2.88;;;24.10;85.80;;;;;;4859408;29;20037;-83
2022/07/15 08:11:47;;;;;;;6.05;2.90;;;24.20;86.10;;;;;;4861845;29;20041;-83
2022/07/15 08:14:12;;;;;;;7.72;3.00;;;24.30;85.50;;;;;;4850095;29;20042;-85
2022/07/15 08:16:42;;;;;;;8.27;3.17;;;24.30;85.30;;;;;;4853292;29;20440;-84
2022/07/15 08:19:08;;;;;;;11.48;3.17;;;24.40;84.80;;;;;;4849020;29;20270;-84
2022/07/15 08:21:33;;;;;;;9.07;3.22;;;24.40;84.30;;;;;;4843708;29;20121;-84
2022/07/15 08:23:59;;;;;;;6.25;2.80;;;24.50;84.30;;;;;;4855476;29;20142;-83
2022/07/15 08:26:25;;;;;;;8.27;3.65;;;24.60;84.40;;;;;;4851303;29;20053;-84
2022/07/15 08:28:52;;;;;;;7.05;3.35;;;24.70;83.20;;;;;;4848439;29;20037;-84
2022/07/15 08:31:18;;;;;;;12.20;3.33;;;24.70;82.40;;;;;;4855924;29;20212;-87
2022/07/15 08:33:46;;;;;;;8.45;3.20;;;24.80;83.10;;;;;;4857441;29;20026;-84
2022/07/15 08:36:12;;;;;;;9.07;3.58;;;24.90;83.10;;;;;;4858333;29;20034;-84
2022/07/15 08:38:39;;;;;;;8.45;3.50;;;24.90;82.50;;;;;;4852929;29;20552;-84
2022/07/15 08:41:05;;;;;;;7.22;3.95;;;24.90;82.00;;;;;;4847576;29;20037;-84
2022/07/15 08:43:32;;;;;;;8.32;3.58;;;25.00;81.60;;;;;;4849035;29;20053;-84
2022/07/15 08:45:57;;;;;;;7.00;3.35;;;25.10;81.60;;;;;;4841821;29;20093;-84
2022/07/15 08:48:33;;;;;;;7.43;3.47;;;25.20;80.70;;;;;;4851950;29;20030;-84
2022/07/15 08:51:01;;;;;;;10.00;3.80;;;25.40;80.90;;;;;;4842850;29;20108;-84
2022/07/15 08:53:30;;;;;;;9.27;3.40;;;25.50;80.20;;;;;;4854342;29;20057;-85
2022/07/15 08:55:56;;;;;;;11.05;4.00;;;25.50;80.00;;;;;;4857307;29;20037;-84
2022/07/15 08:58:22;;;;;;;9.13;3.22;;;25.70;80.40;;;;;;4845955;29;20048;-86
2022/07/15 09:00:50;;;;;;;8.82;3.40;;;25.80;79.30;;;;;;4858580;29;20483;-86
2022/07/15 09:03:16;;;;;;;12.07;3.90;;;25.80;78.70;;;;;;4858021;29;20037;-86
2022/07/15 09:05:42;;;;;;;7.57;3.30;;;25.90;78.60;;;;;;4835916;29;20384;-89
2022/07/15 09:08:14;;;;;;;7.95;3.55;;;26.00;78.40;;;;;;4845893;29;20554;-88
2022/07/15 09:10:57;;;;;;;7.85;3.50;;;26.00;78.10;;;;;;4855894;29;20046;-86
2022/07/15 09:13:40;;;;;;;11.07;3.35;;;26.20;77.50;;;;;;4855338;29;20045;-87
2022/07/15 09:16:08;;;;;;;6.00;3.28;;;26.40;77.30;;;;;;4854402;29;20395;-86
2022/07/15 09:18:42;;;;;;;13.45;3.45;;;26.50;77.40;;;;;;4856588;29;20034;-87
2022/07/15 09:21:15;;;;;;;8.73;3.35;;;26.60;77.40;;;;;;4854248;29;20514;-84
2022/07/15 09:23:41;;;;;;;7.10;3.17;;;26.60;76.50;;;;;;4847383;29;20034;-85
2022/07/15 09:26:33;;;;;;;11.45;3.20;;;26.70;76.70;;;;;;4844169;29;20030;-84
2022/07/15 09:29:00;;;;;;;6.35;2.92;;;26.80;75.80;;;;;;4848459;29;20042;-86
2022/07/15 09:34:16;;;;;;;8.90;3.30;;;27.00;75.50;;;;;;4857486;29;20113;-85
2022/07/15 09:36:45;;;;;;;6.35;3.00;;;27.10;74.90;;;;;;4857610;29;20029;-85
2022/07/15 09:39:11;;;;;;;10.38;2.85;;;27.20;75.30;;;;;;4852490;29;20030;-85
2022/07/15 09:41:41;;;;;;;13.80;3.40;;;27.20;75.40;;;;;;4848884;29;20028;-85
2022/07/15 09:44:09;;;;;;;10.48;2.70;;;27.30;75.50;;;;;;4852450;29;20029;-85
2022/07/15 09:46:57;;;;;;;7.25;3.30;;;27.30;74.60;;;;;;4851452;29;20021;-86
2022/07/15 09:49:22;;;;;;;9.15;2.75;;;27.40;73.50;;;;;;4842644;29;20050;-85
2022/07/15 09:52:02;;;;;;;6.95;2.55;;;27.40;73.70;;;;;;4852468;29;20026;-86
2022/07/15 09:54:32;;;;;;;7.38;2.83;;;27.60;73.60;;;;;;4856086;29;20025;-86
2022/07/15 09:57:00;;;;;;;6.80;2.60;;;27.60;72.40;;;;;;4855106;29;20061;-85
2022/07/15 09:59:26;;;;;;;7.28;3.08;;;27.70;72.80;;;;;;4857142;29;20057;-84
2022/07/15 10:01:51;;;;;;;7.40;3.17;;;27.70;72.00;;;;;;4855222;29;20097;-86
2022/07/15 10:04:20;;;;;;;9.07;2.83;;;27.70;72.80;;;;;;4842023;29;20048;-83
2022/07/15 10:06:48;;;;;;;6.97;2.85;;;27.80;72.30;;;;;;4854465;29;20049;-88
2022/07/15 10:09:14;;;;;;;9.88;3.15;;;27.90;71.80;;;;;;4851046;29;20034;-87
2022/07/15 10:11:49;;;;;;;8.27;2.60;;;27.90;70.50;;;;;;4854345;29;20483;-89
2022/07/15 10:14:32;;;;;;;8.40;2.63;;;28.00;70.80;;;;;;4837426;29;20395;-87
2022/07/15 10:17:04;;;;;;;5.72;2.45;;;28.20;70.10;;;;;;4839179;29;20101;-87
2022/07/15 10:20:00;;;;;;;7.15;2.42;;;28.20;69.50;;;;;;4840088;29;20033;-89
2022/07/15 10:22:47;;;;;;;5.80;2.30;;;28.20;69.30;;;;;;4838726;29;20041;-88
2022/07/15 10:25:31;;;;;;;4.13;2.22;;;28.20;67.80;;;;;;4839126;29;20030;-89
2022/07/15 10:28:15;;;;;;;7.45;2.75;;;28.30;67.70;;;;;;4840450;29;20030;-91
2022/07/15 10:30:42;;;;;;;;;;;28.50;68.40;;;;;;4853680;29;20041;-90
2022/07/15 10:33:13;;;;;;;7.45;2.70;;;28.80;65.50;;;;;;4853902;29;20370;-88
2022/07/15 10:36:03;;;;;;;9.27;2.67;;;28.90;65.90;;;;;;4854515;29;20116;-89
2022/07/15 10:38:33;;;;;;;6.03;2.47;;;29.10;64.00;;;;;;4852960;29;20045;-89
2022/07/15 10:41:12;;;;;;;7.30;2.25;;;29.20;65.40;;;;;;4842066;29;20106;-87
2022/07/15 10:43:43;;;;;;;8.02;2.50;;;29.30;65.30;;;;;;4840772;29;20475;-88
2022/07/15 10:46:29;;;;;;;5.50;2.45;;;29.30;65.00;;;;;;4853020;29;20046;-89
2022/07/15 10:49:00;;;;;;;8.38;2.42;;;29.30;64.70;;;;;;4848591;29;20040;-88
2022/07/15 10:51:35;;;;;;;5.70;2.25;;;29.50;63.10;;;;;;4853556;29;20090;-89
2022/07/15 10:54:09;;;;;;;5.47;2.20;;;29.60;63.30;;;;;;4840130;29;20018;-89
2022/07/15 10:56:47;;;;;;;6.65;2.00;;;29.70;62.80;;;;;;4853907;29;20056;-90
2022/07/15 10:59:23;;;;;;;8.48;2.13;;;29.80;60.00;;;;;;4847775;29;20101;-88
2022/07/15 11:02:01;;;;;;;5.22;2.40;;;29.90;61.00;;;;;;4847412;29;20085;-89
2022/07/15 11:04:29;;;;;;;6.07;2.22;;;30.00;61.70;;;;;;4867282;29;20029;-88
2022/07/15 11:07:10;;;;;;;8.20;2.28;;;30.10;61.80;;;;;;4855985;29;20203;-89
2022/07/15 11:09:52;;;;;;;3.63;2.10;;;30.20;60.80;;;;;;4856967;29;20106;-88
2022/07/15 11:12:22;;;;;;;4.32;2.30;;;30.30;61.70;;;;;;4838676;29;20384;-90
2022/07/15 11:14:52;;;;;;;10.60;2.00;;;30.30;60.60;;;;;;4846630;29;20030;-88
2022/07/15 11:17:24;;;;;;;5.13;2.17;;;30.20;60.30;;;;;;4859761;29;20034;-86
2022/07/15 11:19:53;;;;;;;4.63;2.40;;;30.20;59.10;;;;;;4849167;29;20555;-85
2022/07/15 11:22:21;;;;;;;7.88;2.30;;;30.30;58.70;;;;;;4853830;29;20100;-85
2022/07/15 11:24:47;;;;;;;7.05;2.08;;;30.40;59.70;;;;;;4841832;29;20026;-85
2022/07/15 11:27:13;;;;;;;4.78;2.42;;;30.70;58.00;;;;;;4847144;29;20049;-85
2022/07/15 11:29:47;;;;;;;3.33;1.90;;;30.80;59.00;;;;;;4849495;29;20049;-84
2022/07/15 11:32:15;;;;;;;5.60;1.80;;;30.90;58.10;;;;;;4855098;29;20545;-85
2022/07/15 11:34:46;;;;;;;10.57;2.03;;;31.10;58.10;;;;;;4840907;29;20623;-81
2022/07/15 11:37:18;;;;;;;5.95;2.10;;;31.20;58.60;;;;;;4871407;29;20088;-78
2022/07/15 11:40:03;;;;;;;8.55;2.03;;;31.40;58.60;;;;;;4850886;29;20037;-78
2022/07/15 11:45:15;;;;;;;4.68;2.13;;;31.50;57.60;;;;;;4847924;29;20086;-78
2022/07/15 11:47:52;;;;;;;7.95;2.22;;;31.60;55.80;;;;;;4852959;29;20444;-79
2022/07/15 11:50:19;;;;;;;3.63;1.85;;;31.70;55.70;;;;;;4850456;29;20042;-79
2022/07/15 11:52:45;;;;;;;4.70;1.92;;;31.70;54.50;;;;;;4857124;29;20116;-79
2022/07/15 11:55:11;;;;;;;5.38;1.90;;;31.80;55.20;;;;;;4856645;29;20018;-79
2022/07/15 11:57:37;;;;;;;4.80;2.03;;;31.90;55.60;;;;;;4859156;29;20100;-78
2022/07/15 12:00:03;;;;;;;7.07;2.00;;;32.00;54.70;;;;;;4858265;29;20109;-80
2022/07/15 12:02:29;;;;;;;3.30;2.00;;;32.00;53.50;;;;;;4847415;29;20386;-87
2022/07/15 12:05:05;;;;;;;7.25;2.00;;;32.00;54.10;;;;;;4845258;29;20117;-86
2022/07/15 12:07:45;;;;;;;4.95;1.90;;;32.10;54.20;;;;;;4849664;29;20053;-86
2022/07/15 12:10:12;;;;;;;6.70;2.08;;;32.20;54.10;;;;;;4855131;29;20547;-85
2022/07/15 12:12:56;;;;;;;5.15;1.73;;;32.30;52.70;;;;;;4853253;29;20079;-85
2022/07/15 12:15:22;;;;;;;4.00;1.77;;;32.50;53.30;;;;;;4855790;29;20072;-84
2022/07/15 12:17:49;;;;;;;4.50;1.90;;;32.70;53.10;;;;;;4856240;29;20025;-85
2022/07/15 12:20:15;;;;;;;3.75;2.05;;;32.80;52.60;;;;;;4856826;29;20309;-85
2022/07/15 12:23:06;;;;;;;8.82;2.17;;;32.90;53.00;;;;;;4857576;29;20258;-85
2022/07/15 12:25:32;;;;;;;5.10;2.15;;;33.10;52.80;;;;;;4858430;29;20390;-85
2022/07/15 12:27:58;;;;;;;4.88;2.70;;;33.20;52.10;;;;;;4842487;29;20026;-85
2022/07/15 12:30:45;;;;;;;6.32;2.30;;;33.30;52.80;;;;;;4857517;29;20562;-85
2022/07/15 12:33:14;;;;;;;3.83;1.95;;;33.50;51.90;;;;;;4856518;29;20086;-85
2022/07/15 12:35:39;;;;;;;3.38;1.92;;;33.60;52.70;;;;;;4850919;29;20414;-86
2022/07/15 12:38:05;;;;;;;5.00;1.80;;;33.80;52.60;;;;;;4858674;29;20105;-86
2022/07/15 12:40:30;;;;;;;3.85;1.77;;;33.90;53.00;;;;;;4867841;29;20026;-86
2022/07/15 12:42:56;;;;;;;2.72;1.70;;;34.00;51.60;;;;;;4853327;29;20117;-86
2022/07/15 12:45:22;;;;;;;5.40;1.52;;;34.10;50.60;;;;;;4850403;29;20030;-86
2022/07/15 12:48:01;;;;;;;6.55;1.80;;;34.10;50.30;;;;;;4855099;29;20498;-86
2022/07/15 12:50:51;;;;;;;5.80;1.98;;;34.30;51.10;;;;;;4852659;29;20041;-86
2022/07/15 12:53:18;;;;;;;4.50;1.83;;;34.40;51.00;;;;;;4853989;29;20097;-85
2022/07/15 12:55:50;;;;;;;6.65;1.77;;;34.60;51.20;;;;;;4855226;29;20428;-86
2022/07/15 12:58:18;;;;;;;4.10;1.80;;;34.80;50.20;;;;;;4856829;29;20406;-86
2022/07/15 13:00:45;;;;;;;4.13;1.90;;;35.00;50.40;;;;;;4858095;29;20022;-86